createdAt,value
2023-04-24T00:02:14.574Z,12.02
2023-04-24T00:04:45.857Z,12.01
2023-04-24T00:07:18.456Z,12.02
2023-04-24T00:09:48.526Z,11.98
2023-04-24T00:12:19.078Z,11.97
2023-04-24T00:14:49.261Z,11.95
2023-04-24T00:17:21.417Z,11.93
2023-04-24T00:19:52.349Z,11.95
2023-04-24T00:22:24.320Z,11.95
2023-04-24T00:24:54.824Z,11.90
2023-04-24T00:27:23.996Z,11.88
2023-04-24T00:29:53.107Z,11.94
2023-04-24T00:32:22.339Z,11.94
2023-04-24T00:34:53.335Z,11.94
2023-04-24T00:37:23.964Z,11.96
2023-04-24T00:39:54.937Z,11.94
2023-04-24T00:42:24.790Z,11.97
2023-04-24T00:44:54.163Z,11.92
2023-04-24T00:47:24.608Z,11.92
2023-04-24T00:49:53.917Z,11.95
2023-04-24T00:52:26.396Z,11.92
2023-04-24T00:54:56.601Z,11.91
2023-04-24T00:57:27.592Z,11.93
2023-04-24T00:59:57.794Z,11.90
2023-04-24T01:02:28.051Z,11.89
2023-04-24T01:04:58.143Z,11.93
2023-04-24T01:07:30.114Z,11.89
2023-04-24T01:10:00.652Z,11.87
2023-04-24T01:12:30.751Z,11.85
2023-04-24T01:15:00.275Z,11.79
2023-04-24T01:17:31.216Z,11.74
2023-04-24T01:20:02.655Z,11.72
2023-04-24T01:22:33.515Z,11.59
2023-04-24T01:25:04.548Z,11.59
2023-04-24T01:27:34.177Z,11.63
2023-04-24T01:30:03.447Z,11.61
2023-04-24T01:32:33.114Z,11.57
2023-04-24T01:35:02.790Z,11.57
2023-04-24T01:37:34.630Z,11.59
2023-04-24T01:40:05.294Z,11.56
2023-04-24T01:42:35.094Z,11.49
2023-04-24T01:45:07.980Z,11.50
2023-04-24T01:47:37.819Z,11.51
2023-04-24T01:50:13.413Z,11.51
2023-04-24T01:52:43.999Z,11.53
2023-04-24T01:55:13.678Z,11.51
2023-04-24T01:57:43.928Z,11.48
2023-04-24T02:00:16.046Z,11.28
2023-04-24T02:02:47.530Z,11.30
2023-04-24T02:05:17.189Z,11.29
2023-04-24T02:07:47.700Z,11.29
2023-04-24T02:10:17.675Z,11.24
2023-04-24T02:12:47.141Z,11.28
2023-04-24T02:15:18.460Z,11.22
2023-04-24T02:17:49.240Z,11.21
2023-04-24T02:20:18.726Z,11.20
2023-04-24T02:22:49.544Z,11.16
2023-04-24T02:25:19.992Z,11.10
2023-04-24T02:27:49.431Z,11.10
2023-04-24T02:30:19.172Z,11.04
2023-04-24T02:32:48.550Z,11.07
2023-04-24T02:35:20.345Z,11.06
2023-04-24T02:37:51.258Z,10.94
2023-04-24T02:40:22.899Z,10.97
2023-04-24T02:42:52.447Z,10.94
2023-04-24T02:45:21.375Z,10.91
2023-04-24T02:47:51.342Z,10.89
2023-04-24T02:50:22.029Z,10.83
2023-04-24T02:52:53.876Z,10.86
2023-04-24T02:55:25.048Z,10.81
2023-04-24T02:57:56.070Z,10.85
2023-04-24T03:00:26.950Z,10.87
2023-04-24T03:02:57.047Z,10.88
2023-04-24T03:05:28.438Z,10.87
2023-04-24T03:07:59.824Z,10.82
2023-04-24T03:10:29.411Z,10.80
2023-04-24T03:12:59.915Z,10.78
2023-04-24T03:15:30.170Z,10.71
2023-04-24T03:18:00.313Z,10.71
2023-04-24T03:20:30.003Z,10.65
2023-04-24T03:23:02.182Z,10.58
2023-04-24T03:25:31.181Z,10.55
2023-04-24T03:28:00.912Z,10.48
2023-04-24T03:30:30.735Z,10.47
2023-04-24T03:33:00.803Z,10.40
2023-04-24T03:35:31.645Z,10.39
2023-04-24T03:38:01.960Z,10.38
2023-04-24T03:40:31.984Z,10.38
2023-04-24T03:43:01.364Z,10.40
2023-04-24T03:45:31.918Z,10.36
2023-04-24T03:48:02.438Z,10.35
2023-04-24T03:50:32.020Z,10.35
2023-04-24T03:53:03.456Z,10.25
2023-04-24T03:55:33.826Z,10.29
2023-04-24T03:58:03.840Z,10.29
2023-04-24T04:00:34.870Z,10.21
2023-04-24T04:03:04.987Z,10.13
2023-04-24T04:05:34.754Z,10.06
2023-04-24T04:08:06.018Z,10.03
2023-04-24T04:10:35.641Z,10.10
2023-04-24T04:13:04.599Z,10.15
2023-04-24T04:15:33.912Z,10.16
2023-04-24T04:18:03.558Z,10.10
2023-04-24T04:20:33.015Z,10.11
2023-04-24T04:23:02.009Z,9.99
2023-04-24T04:25:34.225Z,9.98
2023-04-24T04:28:04.179Z,10.00
2023-04-24T04:30:34.123Z,9.95
2023-04-24T04:33:04.096Z,9.94
2023-04-24T04:35:33.432Z,9.95
2023-04-24T04:38:03.420Z,9.94
2023-04-24T04:40:35.355Z,9.93
2023-04-24T04:43:06.003Z,9.92
2023-04-24T04:45:36.084Z,9.90
2023-04-24T04:48:05.864Z,9.88
2023-04-24T04:50:35.962Z,9.92
2023-04-24T04:53:06.005Z,9.91
2023-04-24T04:55:36.842Z,9.94
2023-04-24T04:58:07.422Z,9.92
2023-04-24T05:00:37.330Z,9.85
2023-04-24T05:03:20.002Z,9.88
2023-04-24T05:05:50.719Z,9.79
2023-04-24T05:08:27.248Z,9.82
2023-04-24T05:10:57.763Z,9.83
2023-04-24T05:13:38.980Z,9.85
2023-04-24T05:16:09.997Z,9.85
2023-04-24T05:18:40.036Z,9.83
2023-04-24T05:21:09.045Z,9.85
2023-04-24T05:23:37.952Z,9.87
2023-04-24T05:26:10.153Z,9.92
2023-04-24T05:28:40.092Z,9.94
2023-04-24T05:31:09.436Z,9.92
2023-04-24T05:33:39.475Z,9.90
2023-04-24T05:36:11.076Z,9.90
2023-04-24T05:38:41.548Z,9.90
2023-04-24T05:41:12.722Z,9.93
2023-04-24T05:43:42.108Z,9.95
2023-04-24T05:46:11.994Z,9.98
2023-04-24T05:48:41.583Z,9.96
2023-04-24T05:51:14.061Z,9.99
2023-04-24T05:53:43.406Z,9.99
2023-04-24T05:56:14.737Z,9.95
2023-04-24T05:58:44.228Z,9.98
2023-04-24T06:01:13.832Z,10.01
2023-04-24T06:03:44.293Z,10.03
2023-04-24T06:06:13.969Z,10.03
2023-04-24T06:08:45.157Z,9.98
2023-04-24T06:11:16.017Z,10.02
2023-04-24T06:13:45.918Z,9.98
2023-04-24T06:16:15.033Z,9.99
2023-04-24T06:18:44.443Z,9.98
2023-04-24T06:21:15.520Z,10.09
2023-04-24T06:23:44.404Z,10.00
2023-04-24T06:26:14.362Z,9.96
2023-04-24T06:28:44.784Z,10.00
2023-04-24T06:31:14.866Z,10.08
2023-04-24T06:33:46.102Z,10.17
2023-04-24T06:36:15.602Z,10.20
2023-04-24T06:38:44.570Z,10.20
2023-04-24T06:41:17.258Z,10.28
2023-04-24T06:43:47.560Z,10.33
2023-04-24T06:46:18.055Z,10.36
2023-04-24T06:48:48.184Z,10.35
2023-04-24T06:51:19.634Z,10.33
2023-04-24T06:53:49.589Z,10.34
2023-04-24T06:56:21.865Z,10.31
2023-04-24T06:58:51.634Z,10.33
2023-04-24T07:01:21.943Z,10.25
2023-04-24T07:03:51.156Z,10.13
2023-04-24T07:06:23.044Z,10.15
2023-04-24T07:08:52.705Z,10.15
2023-04-24T07:11:23.251Z,10.15
2023-04-24T07:13:53.194Z,10.11
2023-04-24T07:16:22.259Z,10.10
2023-04-24T07:18:53.151Z,10.17
2023-04-24T07:21:22.495Z,10.25
2023-04-24T07:23:53.033Z,10.21
2023-04-24T07:26:24.604Z,10.25
2023-04-24T07:28:54.568Z,10.30
2023-04-24T07:31:23.672Z,10.29
2023-04-24T07:33:53.871Z,10.29
2023-04-24T07:36:23.236Z,10.26
2023-04-24T07:38:52.890Z,10.29
2023-04-24T07:41:25.841Z,10.36
2023-04-24T07:43:54.920Z,10.37
2023-04-24T07:46:25.859Z,10.25
2023-04-24T07:49:09.174Z,10.14
2023-04-24T07:51:43.137Z,10.20
2023-04-24T07:54:12.233Z,10.23
2023-04-24T07:56:44.553Z,10.19
2023-04-24T07:59:15.018Z,10.17
2023-04-24T08:01:44.444Z,10.13
2023-04-24T08:04:15.634Z,10.20
2023-04-24T08:06:45.600Z,10.12
2023-04-24T08:09:15.083Z,10.08
2023-04-24T08:11:46.694Z,10.08
2023-04-24T08:14:17.201Z,10.15
2023-04-24T08:16:46.728Z,10.15
2023-04-24T08:19:16.131Z,10.17
2023-04-24T08:21:45.923Z,10.14
2023-04-24T08:24:15.407Z,10.19
2023-04-24T08:26:46.708Z,10.15
2023-04-24T08:29:15.689Z,10.14
2023-04-24T08:31:44.723Z,10.14
2023-04-24T08:34:14.121Z,10.11
2023-04-24T08:36:47.509Z,10.06
2023-04-24T08:39:17.681Z,10.03
2023-04-24T08:41:56.442Z,10.09
2023-04-24T08:44:25.486Z,10.04
2023-04-24T08:46:56.636Z,10.02
2023-04-24T08:49:29.634Z,10.07
2023-04-24T08:52:00.799Z,10.11
2023-04-24T08:54:31.225Z,10.15
2023-04-24T08:57:05.207Z,10.18
2023-04-24T08:59:34.929Z,10.18
2023-04-24T09:02:07.558Z,10.17
2023-04-24T09:04:37.899Z,10.18
2023-04-24T09:07:09.155Z,10.25
2023-04-24T09:09:40.500Z,10.19
2023-04-24T09:12:11.647Z,10.18
2023-04-24T09:14:46.680Z,10.17
2023-04-24T09:17:16.375Z,10.28
2023-04-24T09:19:46.282Z,10.31
2023-04-24T09:22:16.641Z,10.38
2023-04-24T09:24:47.860Z,10.35
2023-04-24T09:27:20.545Z,10.33
2023-04-24T09:29:57.004Z,10.38
2023-04-24T09:32:28.726Z,10.43
2023-04-24T09:35:13.223Z,10.43
2023-04-24T09:37:46.056Z,10.49
2023-04-24T09:40:19.484Z,10.46
2023-04-24T09:42:57.067Z,10.50
2023-04-24T09:45:30.822Z,10.47
2023-04-24T09:47:59.778Z,10.48
2023-04-24T09:50:29.652Z,10.35
2023-04-24T09:53:05.857Z,10.35
2023-04-24T09:55:36.036Z,10.36
2023-04-24T09:58:06.459Z,10.38
2023-04-24T10:00:36.671Z,10.39
2023-04-24T10:03:08.476Z,10.42
2023-04-24T10:05:41.363Z,10.42
2023-04-24T10:08:14.779Z,10.47
2023-04-24T10:10:48.114Z,10.46
2023-04-24T10:13:20.053Z,10.50
2023-04-24T10:15:51.839Z,10.56
2023-04-24T10:18:23.792Z,10.59
2023-04-24T10:20:56.802Z,10.68
2023-04-24T10:23:28.541Z,10.69
2023-04-24T10:25:58.270Z,10.71
2023-04-24T10:28:31.123Z,10.79
2023-04-24T10:31:00.871Z,10.75
2023-04-24T10:33:32.304Z,10.81
2023-04-24T10:36:03.305Z,10.86
2023-04-24T10:38:34.317Z,10.87
2023-04-24T10:41:17.014Z,10.84
2023-04-24T10:43:50.233Z,10.88
2023-04-24T10:46:23.180Z,10.93
2023-04-24T10:48:57.146Z,10.91
2023-04-24T10:51:44.829Z,10.83
2023-04-24T10:54:26.931Z,10.74
2023-04-24T10:57:16.909Z,10.69
2023-04-24T10:59:48.679Z,10.75
2023-04-24T11:02:20.247Z,10.78
2023-04-24T11:04:53.509Z,10.77
2023-04-24T11:07:24.878Z,10.86
2023-04-24T11:10:03.769Z,10.96
2023-04-24T11:12:37.559Z,11.04
2023-04-24T11:15:18.259Z,11.12
2023-04-24T11:17:47.835Z,11.15
2023-04-24T11:20:28.640Z,11.16
2023-04-24T11:23:07.116Z,11.20
2023-04-24T11:25:38.309Z,11.23
2023-04-24T11:28:09.062Z,11.29
2023-04-24T11:30:44.958Z,11.31
2023-04-24T11:33:22.526Z,11.32
2023-04-24T11:35:53.655Z,11.36
2023-04-24T11:38:24.925Z,11.35
2023-04-24T11:40:55.440Z,11.35
2023-04-24T11:43:26.742Z,11.28
2023-04-24T11:45:58.255Z,11.33
2023-04-24T11:48:28.241Z,11.39
2023-04-24T11:50:58.180Z,11.41
2023-04-24T11:53:28.228Z,11.49
2023-04-24T11:55:59.384Z,11.54
2023-04-24T11:58:28.616Z,11.55
2023-04-24T12:01:02.746Z,11.66
2023-04-24T12:03:33.057Z,11.70
2023-04-24T12:06:10.145Z,11.78
2023-04-24T12:08:40.414Z,11.77
2023-04-24T12:11:10.849Z,11.75
2023-04-24T12:13:40.736Z,11.76
2023-04-24T12:16:11.337Z,11.80
2023-04-24T12:18:46.857Z,11.89
2023-04-24T12:21:23.079Z,11.94
2023-04-24T12:23:53.554Z,11.99
2023-04-24T12:26:24.228Z,11.96
2023-04-24T12:28:54.118Z,11.97
2023-04-24T12:31:24.924Z,12.01
2023-04-24T12:33:54.696Z,12.00
2023-04-24T12:36:25.307Z,12.03
2023-04-24T12:38:59.290Z,12.06
2023-04-24T12:41:30.014Z,12.10
2023-04-24T12:44:00.161Z,12.02
2023-04-24T12:46:31.030Z,11.99
2023-04-24T12:49:00.981Z,12.03
2023-04-24T12:51:32.062Z,12.06
2023-04-24T12:54:02.494Z,12.09
2023-04-24T12:56:32.375Z,12.20
2023-04-24T12:59:02.493Z,12.24
2023-04-24T13:01:33.887Z,12.20
2023-04-24T13:04:03.893Z,12.19
2023-04-24T13:06:34.615Z,12.23
2023-04-24T13:09:04.751Z,12.22
2023-04-24T13:11:33.968Z,12.21
2023-04-24T13:14:03.957Z,12.14
2023-04-24T13:16:35.432Z,12.17
2023-04-24T13:19:04.760Z,12.24
2023-04-24T13:21:33.662Z,12.30
2023-04-24T13:24:02.788Z,12.34
2023-04-24T13:26:32.686Z,12.44
2023-04-24T13:29:01.055Z,12.46
2023-04-24T13:31:29.548Z,12.57
2023-04-24T13:34:00.423Z,12.68
2023-04-24T13:36:29.731Z,12.60
2023-04-24T13:39:00.942Z,12.58
2023-04-24T13:41:29.935Z,12.66
2023-04-24T13:43:59.855Z,12.73
2023-04-24T13:46:29.026Z,12.64
2023-04-24T13:49:00.437Z,12.52
2023-04-24T13:51:30.071Z,12.55
2023-04-24T13:53:59.594Z,12.58
2023-04-24T13:56:30.083Z,12.61
2023-04-24T13:58:59.077Z,12.51
2023-04-24T14:01:28.076Z,12.56
2023-04-24T14:03:59.843Z,12.53
2023-04-24T14:06:28.989Z,12.56
2023-04-24T14:08:57.902Z,12.63
2023-04-24T14:11:28.959Z,12.72
2023-04-24T14:13:58.886Z,12.70
2023-04-24T14:16:28.451Z,12.73
2023-04-24T14:18:57.829Z,12.82
2023-04-24T14:21:29.959Z,12.91
2023-04-24T14:24:00.469Z,12.92
2023-04-24T14:26:30.024Z,13.01
2023-04-24T14:29:11.560Z,13.14
2023-04-24T14:31:44.793Z,13.28
2023-04-24T14:34:14.044Z,13.36
2023-04-24T14:36:44.720Z,13.35
2023-04-24T14:39:13.761Z,13.42
2023-04-24T14:41:42.643Z,13.43
2023-04-24T14:44:12.097Z,13.44
2023-04-24T14:46:42.308Z,13.50
2023-04-24T14:49:13.291Z,13.53
2023-04-24T14:51:44.736Z,13.49
2023-04-24T14:54:14.682Z,13.52
2023-04-24T14:56:45.924Z,13.66
2023-04-24T14:59:15.910Z,13.73
2023-04-24T15:01:45.491Z,13.80
2023-04-24T15:04:16.404Z,13.84
2023-04-24T15:06:48.004Z,13.71
2023-04-24T15:09:16.919Z,13.71
2023-04-24T15:11:46.791Z,13.65
2023-04-24T15:14:17.562Z,13.59
2023-04-24T15:16:46.739Z,13.61
2023-04-24T15:19:16.350Z,13.59
2023-04-24T15:21:47.757Z,13.63
2023-04-24T15:24:17.104Z,13.67
2023-04-24T15:26:47.047Z,13.60
2023-04-24T15:29:16.536Z,13.53
2023-04-24T15:31:46.603Z,13.35
2023-04-24T15:34:16.607Z,13.37
2023-04-24T15:36:48.590Z,13.33
2023-04-24T15:39:17.591Z,13.23
2023-04-24T15:41:47.736Z,13.20
2023-04-24T15:44:17.891Z,13.23
2023-04-24T15:46:48.012Z,13.12
2023-04-24T15:49:17.440Z,13.05
2023-04-24T15:51:48.986Z,12.91
2023-04-24T15:54:17.362Z,12.90
2023-04-24T15:56:47.448Z,12.57
2023-04-24T15:59:17.983Z,12.53
2023-04-24T16:01:48.065Z,12.42
2023-04-24T16:04:17.202Z,12.31
2023-04-24T16:06:48.494Z,11.96
2023-04-24T16:09:16.989Z,11.80
2023-04-24T16:11:47.071Z,11.77
2023-04-24T16:14:16.025Z,11.76
2023-04-24T16:16:45.141Z,11.69
2023-04-24T16:19:15.665Z,11.54
2023-04-24T16:21:46.521Z,11.52
2023-04-24T16:24:15.084Z,11.52
2023-04-24T16:26:44.612Z,11.48
2023-04-24T16:29:16.268Z,11.39
2023-04-24T16:31:45.621Z,11.42
2023-04-24T16:34:16.051Z,11.36
2023-04-24T16:36:47.046Z,11.36
2023-04-24T16:39:17.445Z,11.32
2023-04-24T16:41:47.468Z,11.33
2023-04-24T16:44:16.596Z,11.30
2023-04-24T16:46:45.643Z,11.21
2023-04-24T16:49:16.607Z,11.23
2023-04-24T16:51:48.103Z,11.24
2023-04-24T16:54:17.896Z,11.26
2023-04-24T16:56:47.764Z,11.24
2023-04-24T16:59:18.394Z,11.21
2023-04-24T17:01:47.247Z,11.13
2023-04-24T17:04:16.976Z,11.21
2023-04-24T17:06:48.415Z,11.18
2023-04-24T17:09:18.403Z,11.17
2023-04-24T17:11:47.994Z,11.24
2023-04-24T17:14:18.116Z,11.21
2023-04-24T17:16:47.089Z,11.14
2023-04-24T17:19:16.111Z,11.19
2023-04-24T17:21:47.548Z,11.22
2023-04-24T17:24:17.989Z,11.24
2023-04-24T17:26:47.365Z,11.25
2023-04-24T17:29:16.839Z,11.18
2023-04-24T17:31:46.265Z,11.20
2023-04-24T17:34:16.229Z,11.23
2023-04-24T17:36:47.705Z,11.23
2023-04-24T17:39:17.250Z,11.20
2023-04-24T17:41:47.940Z,11.19
2023-04-24T17:44:17.584Z,11.20
2023-04-24T17:46:46.789Z,11.20
2023-04-24T17:49:16.155Z,11.16
2023-04-24T17:51:47.501Z,11.15
2023-04-24T17:54:18.251Z,11.18
2023-04-24T17:56:48.946Z,11.17
2023-04-24T17:59:19.442Z,11.16
2023-04-24T18:01:49.609Z,11.18
2023-04-24T18:04:19.064Z,11.21
2023-04-24T18:06:51.223Z,11.20
2023-04-24T18:09:21.121Z,11.16
2023-04-24T18:11:51.755Z,11.13
2023-04-24T18:14:21.743Z,11.10
2023-04-24T18:16:51.829Z,11.11
2023-04-24T18:19:20.762Z,11.09
2023-04-24T18:21:51.634Z,11.05
2023-04-24T18:24:22.828Z,11.03
2023-04-24T18:26:51.868Z,10.99
2023-04-24T18:29:21.716Z,10.97
2023-04-24T18:31:51.064Z,10.93
2023-04-24T18:34:20.235Z,10.85
2023-04-24T18:36:50.769Z,10.85
2023-04-24T18:39:21.208Z,10.83
2023-04-24T18:41:52.458Z,10.81
2023-04-24T18:44:21.807Z,10.78
2023-04-24T18:46:51.365Z,10.78
2023-04-24T18:49:21.392Z,10.76
2023-04-24T18:51:54.629Z,10.75
2023-04-24T18:54:24.918Z,10.72
2023-04-24T18:56:54.679Z,10.71
2023-04-24T18:59:24.876Z,10.71
2023-04-24T19:01:54.901Z,10.73
2023-04-24T19:04:24.420Z,10.72
2023-04-24T19:06:54.165Z,10.68
2023-04-24T19:09:23.003Z,10.66
2023-04-24T19:11:52.376Z,10.64
2023-04-24T19:14:23.231Z,10.66
2023-04-24T19:16:53.095Z,10.65
2023-04-24T19:19:24.530Z,10.63
2023-04-24T19:21:56.464Z,10.61
2023-04-24T19:24:28.980Z,10.60
2023-04-24T19:26:59.440Z,10.60
2023-04-24T19:29:28.653Z,10.57
2023-04-24T19:31:58.820Z,10.55
2023-04-24T19:34:28.166Z,10.54
2023-04-24T19:36:59.349Z,10.52
2023-04-24T19:39:32.417Z,10.48
2023-04-24T19:42:05.722Z,10.50
2023-04-24T19:44:37.623Z,10.39
2023-04-24T19:47:06.261Z,10.38
2023-04-24T19:49:36.057Z,10.27
2023-04-24T19:52:08.367Z,10.11
2023-04-24T19:54:38.137Z,10.13
2023-04-24T19:57:07.417Z,10.17
2023-04-24T19:59:36.801Z,10.19
2023-04-24T20:02:06.986Z,10.13
2023-04-24T20:04:37.061Z,10.03
2023-04-24T20:07:08.899Z,10.08
2023-04-24T20:09:37.824Z,10.02
2023-04-24T20:12:08.260Z,10.00
2023-04-24T20:14:37.913Z,9.98
2023-04-24T20:17:08.259Z,10.01
2023-04-24T20:19:38.369Z,10.04
2023-04-24T20:22:10.357Z,10.02
2023-04-24T20:24:40.527Z,10.00
2023-04-24T20:27:12.436Z,10.01
2023-04-24T20:29:41.368Z,9.92
2023-04-24T20:32:11.205Z,9.92
2023-04-24T20:34:40.872Z,9.88
2023-04-24T20:37:13.408Z,9.90
2023-04-24T20:39:44.592Z,9.86
2023-04-24T20:42:14.343Z,9.82
2023-04-24T20:44:43.255Z,9.77
2023-04-24T20:47:14.010Z,9.71
2023-04-24T20:49:43.467Z,9.74
2023-04-24T20:52:15.405Z,9.75
2023-04-24T20:54:44.779Z,9.74
2023-04-24T20:57:14.970Z,9.73
2023-04-24T20:59:44.170Z,9.72
2023-04-24T21:02:13.471Z,9.70
2023-04-24T21:04:42.462Z,9.70
2023-04-24T21:07:14.515Z,9.70
2023-04-24T21:09:43.894Z,9.68
2023-04-24T21:12:13.940Z,9.68
2023-04-24T21:14:44.569Z,9.60
2023-04-24T21:17:14.154Z,9.60
2023-04-24T21:19:44.387Z,9.61
2023-04-24T21:22:16.101Z,9.58
2023-04-24T21:24:46.575Z,9.58
2023-04-24T21:27:16.139Z,9.58
2023-04-24T21:29:45.414Z,9.55
2023-04-24T21:32:16.316Z,9.48
2023-04-24T21:34:45.886Z,9.49
2023-04-24T21:37:16.433Z,9.48
2023-04-24T21:39:46.353Z,9.47
2023-04-24T21:42:17.415Z,9.44
2023-04-24T21:44:46.446Z,9.41
2023-04-24T21:47:15.930Z,9.43
2023-04-24T21:49:44.913Z,9.37
2023-04-24T21:52:15.302Z,9.38
2023-04-24T21:54:44.291Z,9.36
2023-04-24T21:57:12.909Z,9.33
2023-04-24T21:59:42.880Z,9.33
2023-04-24T22:02:12.456Z,9.31
2023-04-24T22:04:41.574Z,9.32
2023-04-24T22:07:10.585Z,9.35
2023-04-24T22:09:42.067Z,9.37
2023-04-24T22:12:12.158Z,9.35
2023-04-24T22:14:41.567Z,9.37
2023-04-24T22:17:11.552Z,9.34
2023-04-24T22:19:42.525Z,9.34
2023-04-24T22:22:12.042Z,9.36
2023-04-24T22:24:42.749Z,9.38
2023-04-24T22:27:12.271Z,9.31
2023-04-24T22:29:43.663Z,9.32
2023-04-24T22:32:13.163Z,9.31
2023-04-24T22:34:42.537Z,9.29
2023-04-24T22:37:11.463Z,9.28
2023-04-24T22:39:42.903Z,9.28
2023-04-24T22:42:12.800Z,9.27
2023-04-24T22:44:43.273Z,9.28
2023-04-24T22:47:12.101Z,9.31
2023-04-24T22:49:43.385Z,9.32
2023-04-24T22:52:15.088Z,9.32
2023-04-24T22:54:46.659Z,9.32
2023-04-24T22:57:16.481Z,9.34
2023-04-24T22:59:44.986Z,9.35
2023-04-24T23:02:13.657Z,9.32
2023-04-24T23:04:42.200Z,9.32
2023-04-24T23:07:10.699Z,9.31
2023-04-24T23:09:39.117Z,9.27
2023-04-24T23:12:09.069Z,9.28
2023-04-24T23:14:37.679Z,9.30
2023-04-24T23:17:06.196Z,9.32
2023-04-24T23:19:35.128Z,9.31
2023-04-24T23:22:03.726Z,9.27
2023-04-24T23:24:32.306Z,9.27
2023-04-24T23:27:01.842Z,9.30
2023-04-24T23:29:31.711Z,9.30
2023-04-24T23:32:01.907Z,9.27
2023-04-24T23:34:30.555Z,9.27
2023-04-24T23:36:59.086Z,9.30
2023-04-24T23:39:27.581Z,9.31
2023-04-24T23:41:56.114Z,9.27
2023-04-24T23:44:24.538Z,9.28
2023-04-24T23:46:54.374Z,9.28
2023-04-24T23:49:22.823Z,9.25
2023-04-24T23:51:52.344Z,9.24
2023-04-24T23:54:21.172Z,9.24
2023-04-24T23:56:49.934Z,9.22
2023-04-24T23:59:20.710Z,9.19
